createdAt,value
2022-12-13T00:00:14.397Z,12.40
2022-12-13T00:02:59.546Z,12.90
2022-12-13T00:05:45.455Z,12.13
2022-12-13T00:08:31.008Z,11.30
2022-12-13T00:11:16.751Z,12.63
2022-12-13T00:14:02.247Z,11.70
2022-12-13T00:16:49.241Z,12.15
2022-12-13T00:19:34.608Z,12.60
2022-12-13T00:22:19.776Z,12.63
2022-12-13T00:25:05.448Z,12.93
2022-12-13T00:27:50.565Z,13.57
2022-12-13T00:30:35.695Z,13.65
2022-12-13T00:33:21.232Z,13.73
2022-12-13T00:36:08.142Z,12.00
2022-12-13T00:39:02.284Z,12.15
2022-12-13T00:41:47.931Z,12.38
2022-12-13T00:44:33.213Z,12.93
2022-12-13T00:47:20.801Z,13.85
2022-12-13T00:50:06.486Z,12.95
2022-12-13T00:52:52.015Z,12.88
2022-12-13T00:55:40.896Z,13.18
2022-12-13T00:58:26.186Z,12.88
2022-12-13T01:01:14.567Z,13.48
2022-12-13T01:04:01.865Z,12.80
2022-12-13T01:06:49.854Z,12.20
2022-12-13T01:09:35.253Z,12.95
2022-12-13T01:12:20.447Z,12.75
2022-12-13T01:15:06.885Z,11.68
2022-12-13T01:17:52.394Z,10.82
2022-12-13T01:20:37.860Z,10.30
2022-12-13T01:23:23.034Z,11.55
2022-12-13T01:26:14.079Z,12.50
2022-12-13T01:28:59.857Z,13.63
2022-12-13T01:31:45.342Z,12.90
2022-12-13T01:34:30.982Z,13.10
2022-12-13T01:37:17.519Z,13.98
2022-12-13T01:40:15.802Z,15.00
2022-12-13T01:45:59.974Z,14.55
2022-12-13T01:49:01.574Z,14.40
2022-12-13T01:51:54.150Z,15.10
2022-12-13T01:54:46.716Z,14.93
2022-12-13T01:57:34.741Z,13.55
2022-12-13T02:00:20.009Z,13.45
2022-12-13T02:03:05.703Z,13.35
2022-12-13T02:06:19.663Z,12.73
2022-12-13T02:09:07.038Z,12.90
2022-12-13T02:11:52.942Z,13.35
2022-12-13T02:14:40.699Z,13.02
2022-12-13T02:17:53.032Z,14.20
2022-12-13T02:20:50.337Z,13.80
2022-12-13T02:23:57.118Z,14.52
2022-12-13T02:26:51.971Z,13.73
2022-12-13T02:29:56.387Z,14.23
2022-12-13T02:33:10.350Z,14.02
2022-12-13T02:36:14.616Z,14.43
2022-12-13T02:39:03.231Z,15.65
2022-12-13T02:41:51.027Z,14.40
2022-12-13T02:44:48.774Z,15.40
2022-12-13T02:47:35.685Z,14.93
2022-12-13T02:50:22.510Z,15.23
2022-12-13T02:53:09.739Z,15.15
2022-12-13T02:55:55.256Z,14.20
2022-12-13T02:58:49.199Z,15.55
2022-12-13T03:01:45.561Z,14.93
2022-12-13T03:05:02.818Z,15.98
2022-12-13T03:08:20.819Z,15.75
2022-12-13T03:11:10.847Z,15.07
2022-12-13T03:14:00.269Z,15.88
2022-12-13T03:19:33.752Z,14.57
2022-12-13T03:22:19.578Z,15.43
2022-12-13T03:25:04.924Z,14.38
2022-12-13T03:27:51.069Z,15.02
2022-12-13T03:30:36.509Z,14.68
2022-12-13T03:33:22.713Z,15.55
2022-12-13T03:36:09.034Z,14.27
2022-12-13T03:38:55.122Z,13.98
2022-12-13T03:41:40.674Z,13.20
2022-12-13T03:44:31.708Z,14.38
2022-12-13T03:47:17.415Z,14.93
2022-12-13T03:50:25.742Z,14.27
2022-12-13T03:53:08.846Z,12.98
2022-12-13T03:56:08.767Z,14.77
2022-12-13T03:58:54.145Z,13.95
2022-12-13T04:01:39.313Z,14.40
2022-12-13T04:04:24.724Z,14.23
2022-12-13T04:07:22.063Z,13.20
2022-12-13T04:10:26.143Z,13.07
2022-12-13T04:13:30.648Z,14.18
2022-12-13T04:16:15.855Z,13.73
2022-12-13T04:19:01.231Z,14.13
2022-12-13T04:21:46.453Z,15.13
2022-12-13T04:24:32.370Z,14.77
2022-12-13T04:27:17.902Z,13.45
2022-12-13T04:30:03.774Z,13.20
2022-12-13T04:32:48.829Z,13.75
2022-12-13T04:35:34.191Z,14.57
2022-12-13T04:38:20.106Z,13.90
2022-12-13T04:41:15.281Z,13.95
2022-12-13T04:44:00.521Z,14.65
2022-12-13T04:46:45.905Z,14.30
2022-12-13T04:49:31.618Z,13.98
2022-12-13T04:52:22.547Z,14.73
2022-12-13T04:55:08.961Z,15.27
2022-12-13T04:57:54.423Z,14.10
2022-12-13T05:00:40.964Z,14.02
2022-12-13T05:03:30.061Z,13.35
2022-12-13T05:06:27.489Z,13.48
2022-12-13T05:09:13.101Z,12.07
2022-12-13T05:12:01.136Z,13.32
2022-12-13T05:14:46.503Z,14.30
2022-12-13T05:17:32.159Z,13.18
2022-12-13T05:20:17.635Z,13.68
2022-12-13T05:23:02.819Z,13.57
2022-12-13T05:25:48.424Z,13.95
2022-12-13T05:28:34.948Z,14.52
2022-12-13T05:31:23.599Z,12.88
2022-12-13T05:34:09.242Z,12.55
2022-12-13T05:36:54.554Z,12.98
2022-12-13T05:39:39.708Z,13.32
2022-12-13T05:42:25.363Z,12.98
2022-12-13T05:45:11.953Z,12.40
2022-12-13T05:47:58.051Z,11.93
2022-12-13T05:50:43.100Z,12.32
2022-12-13T05:53:30.752Z,12.48
2022-12-13T05:56:22.566Z,12.88
2022-12-13T05:59:08.964Z,13.18
2022-12-13T06:01:54.245Z,12.80
2022-12-13T06:04:39.433Z,12.65
2022-12-13T06:07:24.421Z,14.52
2022-12-13T06:10:11.025Z,13.88
2022-12-13T06:13:00.960Z,13.40
2022-12-13T06:15:46.693Z,13.70
2022-12-13T06:18:34.488Z,14.27
2022-12-13T06:21:19.899Z,15.48
2022-12-13T06:24:05.635Z,14.23
2022-12-13T06:26:51.391Z,13.90
2022-12-13T06:29:36.743Z,13.85
2022-12-13T06:32:22.345Z,14.52
2022-12-13T06:35:08.954Z,14.20
2022-12-13T06:38:21.812Z,14.35
2022-12-13T06:41:17.013Z,14.98
2022-12-13T06:44:02.243Z,13.52
2022-12-13T06:46:47.485Z,13.80
2022-12-13T06:49:32.736Z,14.95
2022-12-13T06:52:18.019Z,14.65
2022-12-13T06:55:03.673Z,15.05
2022-12-13T06:57:48.917Z,13.82
2022-12-13T07:00:40.900Z,15.75
2022-12-13T07:03:35.732Z,15.45
2022-12-13T07:06:22.038Z,16.13
2022-12-13T07:09:07.312Z,16.38
2022-12-13T07:11:52.891Z,16.15
2022-12-13T07:14:40.780Z,16.00
2022-12-13T07:17:33.512Z,15.98
2022-12-13T07:20:20.152Z,16.08
2022-12-13T07:23:05.399Z,16.67
2022-12-13T07:25:54.779Z,18.20
2022-12-13T07:28:40.025Z,16.88
2022-12-13T07:31:25.699Z,16.73
2022-12-13T07:34:15.414Z,18.38
2022-12-13T07:37:00.997Z,17.42
2022-12-13T07:39:47.100Z,18.88
2022-12-13T07:42:32.433Z,17.83
2022-12-13T07:45:17.949Z,19.08
2022-12-13T07:48:05.423Z,17.25
2022-12-13T07:50:54.779Z,17.52
2022-12-13T07:53:41.147Z,17.65
2022-12-13T07:56:26.199Z,18.10
2022-12-13T07:59:11.936Z,17.85
2022-12-13T08:01:57.662Z,18.95
2022-12-13T08:04:54.524Z,16.85
2022-12-13T08:07:40.288Z,17.27
2022-12-13T08:10:25.998Z,17.77
2022-12-13T08:13:11.213Z,18.00
2022-12-13T08:16:26.176Z,18.48
2022-12-13T08:19:13.671Z,18.58
2022-12-13T08:22:01.708Z,18.73
2022-12-13T08:24:47.072Z,18.77
2022-12-13T08:27:33.146Z,19.27
2022-12-13T08:30:23.164Z,18.17
2022-12-13T08:33:08.941Z,18.02
2022-12-13T08:35:54.211Z,19.90
2022-12-13T08:38:39.269Z,19.80
2022-12-13T08:41:24.969Z,19.65
2022-12-13T08:44:10.190Z,20.15
2022-12-13T08:46:55.355Z,19.48
2022-12-13T08:49:41.590Z,18.38
2022-12-13T08:52:26.993Z,18.98
2022-12-13T08:55:14.157Z,18.10
2022-12-13T08:58:03.945Z,18.27
2022-12-13T09:00:49.292Z,19.50
2022-12-13T09:03:35.951Z,16.38
2022-12-13T09:06:21.067Z,17.02
2022-12-13T09:09:06.435Z,19.38
2022-12-13T09:11:51.989Z,18.73
2022-12-13T09:14:46.540Z,16.92
2022-12-13T09:17:37.254Z,17.45
2022-12-13T09:20:29.789Z,15.93
2022-12-13T09:23:23.649Z,15.32
2022-12-13T09:26:11.741Z,16.15
2022-12-13T09:29:00.339Z,16.10
2022-12-13T09:31:56.795Z,15.32
2022-12-13T09:34:42.234Z,15.27
2022-12-13T09:37:32.036Z,17.30
2022-12-13T09:40:26.635Z,16.92
2022-12-13T09:43:42.670Z,17.05
2022-12-13T09:46:44.344Z,16.92
2022-12-13T09:49:35.726Z,15.88
2022-12-13T09:52:24.008Z,15.45
2022-12-13T09:55:22.440Z,14.63
2022-12-13T09:58:20.686Z,14.95
2022-12-13T10:01:06.367Z,16.42
2022-12-13T10:03:54.209Z,16.83
2022-12-13T10:06:39.740Z,15.48
2022-12-13T10:09:25.142Z,14.00
2022-12-13T10:12:15.188Z,14.55
2022-12-13T10:15:03.585Z,14.77
2022-12-13T10:17:55.190Z,14.25
2022-12-13T10:20:41.698Z,15.02
2022-12-13T10:23:42.580Z,14.50
2022-12-13T10:26:38.212Z,14.65
2022-12-13T10:32:13.386Z,15.55
2022-12-13T10:34:58.517Z,15.65
2022-12-13T10:37:43.910Z,16.52
2022-12-13T10:40:38.135Z,15.75
2022-12-13T10:43:28.301Z,13.77
2022-12-13T10:46:25.194Z,14.57
2022-12-13T10:49:26.158Z,14.80
2022-12-13T10:52:43.436Z,14.55
2022-12-13T10:55:35.086Z,13.98
2022-12-13T10:58:20.854Z,14.57
2022-12-13T11:01:11.191Z,14.52
2022-12-13T11:03:56.814Z,13.88
2022-12-13T11:06:48.325Z,14.00
2022-12-13T11:09:38.402Z,13.85
2022-12-13T11:12:27.390Z,13.75
2022-12-13T11:15:24.066Z,14.02
2022-12-13T11:18:21.742Z,14.20
2022-12-13T11:21:07.785Z,14.32
2022-12-13T11:24:01.779Z,15.05
2022-12-13T11:26:54.130Z,14.48
2022-12-13T11:29:46.062Z,13.15
2022-12-13T11:32:43.812Z,13.57
2022-12-13T11:35:41.603Z,13.80
2022-12-13T11:38:34.154Z,14.23
2022-12-13T11:41:36.494Z,13.55
2022-12-13T11:44:51.957Z,14.30
2022-12-13T11:47:47.978Z,14.40
2022-12-13T11:50:42.690Z,13.27
2022-12-13T11:53:40.975Z,13.70
2022-12-13T11:56:38.701Z,13.75
2022-12-13T11:59:42.347Z,13.43
2022-12-13T12:02:31.509Z,13.55
2022-12-13T12:05:43.149Z,13.25
2022-12-13T12:08:57.444Z,12.50
2022-12-13T12:11:56.514Z,11.80
2022-12-13T12:14:46.602Z,12.35
2022-12-13T12:17:36.431Z,12.25
2022-12-13T12:20:53.719Z,13.48
2022-12-13T12:23:54.687Z,12.05
2022-12-13T12:26:57.086Z,12.80
2022-12-13T12:30:00.569Z,11.80
2022-12-13T12:33:13.503Z,11.75
2022-12-13T12:36:12.146Z,10.95
2022-12-13T12:39:26.208Z,13.10
2022-12-13T12:43:14.132Z,11.65
2022-12-13T12:46:17.121Z,14.68
2022-12-13T12:49:29.234Z,12.35
2022-12-13T12:52:45.536Z,12.68
2022-12-13T12:55:42.516Z,13.00
2022-12-13T12:58:39.719Z,12.63
2022-12-13T13:01:36.094Z,11.00
2022-12-13T13:04:36.018Z,11.68
2022-12-13T13:07:27.532Z,12.30
2022-12-13T13:10:25.836Z,12.27
2022-12-13T13:13:35.429Z,12.30
2022-12-13T13:16:40.196Z,11.77
2022-12-13T13:19:31.415Z,11.30
2022-12-13T13:22:33.570Z,12.65
2022-12-13T13:25:31.053Z,10.98
2022-12-13T13:28:17.870Z,11.02
2022-12-13T13:31:07.949Z,11.98
2022-12-13T13:33:53.098Z,11.85
2022-12-13T13:36:39.509Z,10.73
2022-12-13T13:39:27.961Z,12.70
2022-12-13T13:42:19.691Z,12.38
2022-12-13T13:45:22.480Z,11.18
2022-12-13T13:48:40.340Z,12.10
2022-12-13T13:55:35.066Z,11.18
2022-12-13T13:58:39.651Z,11.70
2022-12-13T14:01:59.651Z,11.40
2022-12-13T14:05:02.230Z,11.60
2022-12-13T14:08:11.788Z,11.70
2022-12-13T14:11:12.447Z,11.80
2022-12-13T14:14:40.628Z,11.45
2022-12-13T14:17:50.776Z,11.77
2022-12-13T14:20:45.845Z,13.70
2022-12-13T14:23:56.868Z,12.30
2022-12-13T14:27:03.261Z,12.95
2022-12-13T14:29:58.407Z,13.93
2022-12-13T14:32:47.673Z,12.70
2022-12-13T14:35:33.306Z,11.88
2022-12-13T14:38:25.463Z,10.82
2022-12-13T14:41:18.519Z,12.15
2022-12-13T14:44:27.654Z,12.68
2022-12-13T14:47:14.814Z,11.65
2022-12-13T14:50:00.259Z,14.85
2022-12-13T14:52:46.867Z,13.82
2022-12-13T14:55:36.550Z,14.02
2022-12-13T14:58:22.132Z,14.10
2022-12-13T15:01:29.298Z,13.35
2022-12-13T15:04:21.576Z,12.82
2022-12-13T15:07:24.264Z,13.07
2022-12-13T15:10:20.881Z,14.15
2022-12-13T15:13:07.174Z,14.30
2022-12-13T15:15:55.690Z,13.93
2022-12-13T15:18:42.291Z,13.43
2022-12-13T15:21:33.689Z,14.15
2022-12-13T15:24:30.042Z,13.43
2022-12-13T15:27:24.446Z,12.70
2022-12-13T15:30:14.329Z,13.00
2022-12-13T15:33:15.866Z,13.30
2022-12-13T15:36:07.461Z,14.38
2022-12-13T15:38:55.695Z,14.57
2022-12-13T15:41:47.526Z,14.73
2022-12-13T15:44:44.656Z,13.80
2022-12-13T15:47:33.701Z,15.48
2022-12-13T15:50:43.861Z,15.93
2022-12-13T15:53:33.952Z,15.05
2022-12-13T15:56:41.402Z,16.23
2022-12-13T15:59:35.353Z,15.45
2022-12-13T16:02:24.294Z,15.88
2022-12-13T16:05:22.986Z,15.65
2022-12-13T16:08:24.603Z,15.20
2022-12-13T16:11:10.155Z,15.90
2022-12-13T16:14:26.099Z,14.35
2022-12-13T16:17:24.400Z,16.83
2022-12-13T16:20:15.690Z,16.23
2022-12-13T16:23:01.056Z,20.05
2022-12-13T16:25:54.839Z,16.98
2022-12-13T16:28:40.920Z,15.75
2022-12-13T16:31:35.306Z,16.83
2022-12-13T16:34:20.896Z,16.63
2022-12-13T16:37:26.070Z,16.63
2022-12-13T16:40:30.938Z,17.05
2022-12-13T16:43:24.339Z,18.30
2022-12-13T16:47:14.502Z,18.05
2022-12-13T16:49:30.758Z,17.35
2022-12-13T16:52:16.597Z,17.60
2022-12-13T16:55:03.792Z,16.70
2022-12-13T16:58:00.574Z,16.80
2022-12-13T17:00:45.903Z,18.80
2022-12-13T17:03:31.417Z,17.92
2022-12-13T17:06:22.983Z,18.80
2022-12-13T17:09:08.316Z,17.50
2022-12-13T17:11:53.926Z,17.58
2022-12-13T17:14:40.625Z,17.48
2022-12-13T17:17:25.899Z,17.67
2022-12-13T17:20:14.908Z,17.65
2022-12-13T17:23:01.368Z,16.80
2022-12-13T17:25:47.019Z,15.60
2022-12-13T17:28:43.701Z,16.55
2022-12-13T17:31:35.441Z,17.30
2022-12-13T17:34:21.771Z,18.38
2022-12-13T17:37:10.441Z,18.02
2022-12-13T17:39:56.001Z,17.90
2022-12-13T17:42:41.416Z,17.02
2022-12-13T17:45:26.985Z,16.65
2022-12-13T17:48:12.607Z,16.88
2022-12-13T17:50:57.701Z,17.15
2022-12-13T17:53:44.230Z,17.73
2022-12-13T17:56:29.450Z,17.85
2022-12-13T17:59:15.327Z,16.92
2022-12-13T18:02:00.515Z,17.13
2022-12-13T18:04:46.137Z,17.38
2022-12-13T18:07:31.229Z,18.20
2022-12-13T18:10:16.624Z,17.95
2022-12-13T18:13:02.293Z,16.77
2022-12-13T18:15:47.517Z,17.67
2022-12-13T18:18:33.138Z,17.30
2022-12-13T18:21:19.080Z,17.65
2022-12-13T18:24:05.603Z,17.73
2022-12-13T18:26:51.403Z,18.55
2022-12-13T18:29:36.574Z,17.92
2022-12-13T18:32:21.648Z,18.10
2022-12-13T18:35:07.480Z,16.63
2022-12-13T18:37:52.944Z,18.38
2022-12-13T18:40:38.290Z,18.50
2022-12-13T18:43:25.032Z,17.90
2022-12-13T18:46:11.861Z,19.35
2022-12-13T18:48:57.855Z,19.58
2022-12-13T18:51:43.059Z,19.23
2022-12-13T18:54:28.480Z,18.60
2022-12-13T18:57:13.978Z,17.67
2022-12-13T18:59:59.288Z,18.80
2022-12-13T19:02:44.361Z,18.67
2022-12-13T19:05:29.812Z,18.02
2022-12-13T19:08:14.970Z,19.25
2022-12-13T19:11:01.898Z,18.67
2022-12-13T19:13:47.746Z,20.02
2022-12-13T19:16:33.021Z,19.52
2022-12-13T19:19:19.217Z,19.75
2022-12-13T19:22:04.597Z,19.13
2022-12-13T19:24:50.126Z,19.40
2022-12-13T19:27:35.211Z,19.98
2022-12-13T19:30:22.929Z,19.73
2022-12-13T19:33:08.053Z,19.58
2022-12-13T19:35:53.477Z,19.95
2022-12-13T19:38:40.173Z,18.50
2022-12-13T19:41:26.250Z,19.45
2022-12-13T19:44:11.913Z,19.83
2022-12-13T19:46:57.483Z,18.85
2022-12-13T19:49:42.635Z,19.15
2022-12-13T19:52:28.240Z,18.73
2022-12-13T19:55:13.377Z,20.38
2022-12-13T19:57:59.654Z,18.35
2022-12-13T20:00:44.915Z,19.02
2022-12-13T20:03:37.752Z,19.27
2022-12-13T20:06:23.195Z,19.83
2022-12-13T20:09:08.464Z,17.80
2022-12-13T20:11:53.824Z,17.70
2022-12-13T20:14:39.418Z,19.38
2022-12-13T20:17:24.507Z,19.23
2022-12-13T20:20:10.831Z,18.83
2022-12-13T20:22:56.089Z,17.83
2022-12-13T20:25:41.484Z,18.20
2022-12-13T20:28:28.655Z,17.73
2022-12-13T20:31:27.357Z,19.05
2022-12-13T20:34:14.356Z,17.93
2022-12-13T20:36:59.922Z,18.00
2022-12-13T20:39:45.077Z,17.58
2022-12-13T20:42:30.505Z,17.65
2022-12-13T20:45:16.450Z,18.23
2022-12-13T20:48:01.896Z,18.13
2022-12-13T20:50:48.863Z,17.20
2022-12-13T20:53:37.689Z,16.67
2022-12-13T20:56:31.654Z,13.43
2022-12-13T20:59:17.076Z,17.77
2022-12-13T21:02:02.485Z,18.08
2022-12-13T21:04:47.904Z,17.60
2022-12-13T21:07:51.830Z,18.02
2022-12-13T21:10:37.405Z,18.73
2022-12-13T21:13:22.348Z,18.25
2022-12-13T21:16:08.178Z,18.05
2022-12-13T21:18:57.728Z,18.48
2022-12-13T21:21:43.317Z,15.85
2022-12-13T21:24:29.379Z,16.33
2022-12-13T21:27:14.908Z,17.38
2022-12-13T21:30:00.346Z,16.52
2022-12-13T21:32:49.842Z,18.08
2022-12-13T21:35:37.991Z,17.77
2022-12-13T21:38:23.434Z,16.85
2022-12-13T21:41:10.351Z,16.95
2022-12-13T21:43:56.942Z,16.42
2022-12-13T21:49:48.706Z,17.92
2022-12-13T21:52:34.790Z,15.95
2022-12-13T21:58:54.981Z,16.38
2022-12-13T22:02:18.049Z,16.85
2022-12-13T22:05:04.170Z,17.00
2022-12-13T22:07:49.492Z,17.67
2022-12-13T22:10:55.226Z,16.55
2022-12-13T22:13:40.944Z,16.25
2022-12-13T22:16:26.150Z,17.35
2022-12-13T22:19:13.345Z,18.05
2022-12-13T22:21:58.769Z,17.55
2022-12-13T22:24:48.461Z,18.60
2022-12-13T22:27:38.256Z,17.25
2022-12-13T22:30:23.633Z,18.65
2022-12-13T22:33:08.836Z,18.88
2022-12-13T22:35:54.030Z,18.98
2022-12-13T22:38:39.411Z,19.63
2022-12-13T22:41:24.950Z,18.30
2022-12-13T22:44:14.656Z,16.80
2022-12-13T22:47:00.565Z,17.40
2022-12-13T22:49:48.599Z,18.35
2022-12-13T22:52:34.300Z,17.25
2022-12-13T22:55:20.247Z,18.60
2022-12-13T22:58:05.610Z,19.05
2022-12-13T23:00:50.835Z,19.48
2022-12-13T23:03:37.122Z,18.90
2022-12-13T23:06:28.211Z,19.52
2022-12-13T23:09:14.376Z,19.80
2022-12-13T23:12:18.448Z,20.42
2022-12-13T23:15:04.943Z,19.27
2022-12-13T23:17:50.098Z,17.80
2022-12-13T23:20:35.846Z,18.58
2022-12-13T23:23:24.340Z,18.13
2022-12-13T23:26:18.111Z,17.10
2022-12-13T23:29:05.628Z,17.20
2022-12-13T23:31:51.003Z,17.80
2022-12-13T23:34:36.597Z,16.85
2022-12-13T23:37:21.786Z,17.33
2022-12-13T23:40:08.234Z,16.75
2022-12-13T23:42:53.901Z,16.52
2022-12-13T23:45:39.849Z,15.88
2022-12-13T23:48:27.132Z,16.40
2022-12-13T23:51:15.137Z,16.17
2022-12-13T23:54:00.329Z,16.55
2022-12-13T23:56:45.997Z,17.05
2022-12-13T23:59:31.388Z,16.52
